Galati, Romania
Current Conditions -  °F | °C
As of 3:00 PM on Thursday 29 Jan 2015 (Local Time) from LRTC Reporting Station
Broken Clouds Broken Clouds  
Wind Chill: 37°   Ceiling: 2500
Heat Index: 43°   Visibility: 6mi
Dew Point: 39°   Wind: 12mph
Humidity: 87%   Direction: 150°SSE
Pressure: 29.77"   Gusts: NA
Location:  45.44°N, 28.04°E
Report Text: LRTC 291200Z 15010KT 9999 BKN025 BKN029 06/04 Q1008
Loading
Personal Weather Stations






























Interactive Weather Map New forecast layout! Learn more

10-Day Weather Forecast

Advertisements
Track Severe Weather on mobile